Time;durP1;ratioP1;P1;durP2;ratioP2;P2;SDS_P1;SDS_P2;PMS_P1;PMS_P2;Temp;Humidity;BMP_temperature;BMP_pressure;BME280_temperature;BME280_humidity;BME280_pressure;Samples;Min_cycle;Max_cycle;Signal;HPM_P1;HPM_P2
2021/04/04 00:00:43;;;;;;;0.30;0.17;;;;;;;2.88;80.21;101071.09;5033676;28;20447;-56
2021/04/04 00:03:09;;;;;;;0.30;0.20;;;;;;;2.76;80.84;101070.91;5033650;28;20981;-56
2021/04/04 00:05:35;;;;;;;0.30;0.17;;;;;;;2.80;80.58;101077.97;5032109;28;21001;-56
2021/04/04 00:08:02;;;;;;;0.30;0.17;;;;;;;2.65;81.15;101068.13;5032289;28;20455;-56
2021/04/04 00:10:28;;;;;;;0.30;0.10;;;;;;;2.60;81.49;101061.00;5033497;28;20865;-57
2021/04/04 00:12:54;;;;;;;0.30;0.20;;;;;;;2.78;80.89;101068.31;5033540;28;20475;-56
2021/04/04 00:15:20;;;;;;;0.77;0.57;;;;;;;2.72;81.25;101065.56;5033504;28;20449;-56
2021/04/04 00:17:47;;;;;;;0.30;0.20;;;;;;;2.55;81.81;101065.31;5033386;28;20452;-57
2021/04/04 00:20:15;;;;;;;0.40;0.37;;;;;;;2.45;82.24;101061.63;5032086;28;20505;-56
2021/04/04 00:22:42;;;;;;;0.30;0.20;;;;;;;2.59;81.25;101061.88;5033045;28;20479;-56
2021/04/04 00:25:11;;;;;;;0.30;0.20;;;;;;;2.72;81.25;101052.44;5033197;28;20925;-56
2021/04/04 00:27:38;;;;;;;0.30;0.20;;;;;;;2.85;81.00;101047.41;5033347;28;20563;-56
2021/04/04 00:30:12;;;;;;;0.30;0.17;;;;;;;2.71;81.50;101051.56;5033136;28;20509;-57
2021/04/04 00:32:39;;;;;;;0.30;0.20;;;;;;;2.49;81.93;101050.38;5031709;28;20825;-56
2021/04/04 00:35:14;;;;;;;0.30;0.20;;;;;;;2.49;81.20;101046.84;5033384;28;21003;-55
2021/04/04 00:37:40;;;;;;;0.30;0.10;;;;;;;2.41;82.83;101049.34;5033142;28;20443;-56
2021/04/04 00:40:22;;;;;;;0.30;0.10;;;;;;;2.34;82.93;101044.88;5033114;28;20452;-56
2021/04/04 00:42:48;;;;;;;0.30;0.10;;;;;;;2.24;82.82;101050.81;5032138;28;20521;-56
2021/04/04 00:45:21;;;;;;;0.40;0.30;;;;;;;2.18;83.49;101055.91;5032748;28;20980;-56
2021/04/04 00:47:48;;;;;;;0.30;0.20;;;;;;;2.16;83.92;101057.63;5032645;28;20510;-55
2021/04/04 00:50:16;;;;;;;0.30;0.20;;;;;;;2.35;83.89;101054.50;5032884;28;20444;-56
2021/04/04 00:52:44;;;;;;;0.30;0.13;;;;;;;2.40;83.32;101050.19;5032734;28;20525;-56
2021/04/04 00:55:12;;;;;;;0.30;0.20;;;;;;;2.35;82.83;101052.75;5032874;28;20452;-56
2021/04/04 00:57:40;;;;;;;0.30;0.20;;;;;;;2.12;84.19;101054.09;5032425;28;20456;-56
2021/04/04 01:00:09;;;;;;;0.30;0.20;;;;;;;2.05;83.95;101050.44;5032931;28;20501;-55
2021/04/04 01:02:36;;;;;;;0.30;0.20;;;;;;;1.83;85.54;101044.81;5032564;28;20945;-56
2021/04/04 01:05:05;;;;;;;0.30;0.20;;;;;;;1.84;85.94;101057.06;5032746;28;20448;-56
2021/04/04 01:07:34;;;;;;;0.30;0.20;;;;;;;1.98;85.21;101053.84;5032569;28;20543;-56
2021/04/04 01:10:03;;;;;;;0.30;0.20;;;;;;;2.01;84.00;101053.88;5032622;28;20456;-56
2021/04/04 01:12:45;;;;;;;0.30;0.30;;;;;;;2.07;84.62;101059.25;5032409;28;20456;-55
2021/04/04 01:15:18;;;;;;;0.30;0.20;;;;;;;2.07;84.63;101061.00;5032657;28;20506;-55
2021/04/04 01:17:48;;;;;;;0.30;0.20;;;;;;;1.88;84.08;101058.88;5032500;28;20925;-55
2021/04/04 01:20:28;;;;;;;0.30;0.30;;;;;;;1.80;85.38;101058.75;5032340;28;20494;-56
2021/04/04 01:22:57;;;;;;;0.30;0.10;;;;;;;1.85;85.00;101058.81;5032352;28;20468;-56
2021/04/04 01:25:43;;;;;;;0.30;0.20;;;;;;;1.65;85.41;101059.31;5032065;28;20463;-56
2021/04/04 01:28:32;;;;;;;0.30;0.23;;;;;;;1.74;86.57;101050.75;5031203;28;20448;-56
2021/04/04 01:31:00;;;;;;;0.30;0.20;;;;;;;1.89;85.63;101048.41;5032313;28;20455;-55
2021/04/04 01:33:30;;;;;;;0.30;0.10;;;;;;;1.86;84.82;101050.97;5031978;28;20479;-56
2021/04/04 01:35:58;;;;;;;0.30;0.13;;;;;;;1.81;84.77;101046.53;5032578;28;20503;-55
2021/04/04 01:38:27;;;;;;;0.30;0.10;;;;;;;1.81;84.90;101044.78;5032395;28;20460;-55
2021/04/04 01:41:04;;;;;;;0.30;0.10;;;;;;;1.90;84.54;101044.06;5032446;28;20448;-55
2021/04/04 01:43:32;;;;;;;0.30;0.10;;;;;;;1.71;85.42;101048.06;5019358;28;20525;-56
2021/04/04 01:45:59;;;;;;;0.30;0.10;;;;;;;1.75;84.87;101047.25;5031916;28;20487;-56
2021/04/04 01:48:26;;;;;;;0.30;0.20;;;;;;;1.63;85.95;101040.03;5032384;28;20754;-56
2021/04/04 01:50:53;;;;;;;0.73;0.73;;;;;;;1.59;86.01;101042.59;5030987;28;20954;-56
2021/04/04 01:53:21;;;;;;;0.30;0.10;;;;;;;1.59;85.89;101039.97;5033709;28;20468;-56
2021/04/04 01:55:47;;;;;;;0.30;0.10;;;;;;;1.56;86.26;101045.16;5035879;28;20454;-56
2021/04/04 01:58:14;;;;;;;0.30;0.20;;;;;;;1.61;85.46;101048.72;5034868;28;20447;-56
2021/04/04 02:00:41;;;;;;;0.23;0.10;;;;;;;1.47;86.41;101049.34;5035662;28;20900;-56
2021/04/04 02:03:09;;;;;;;0.30;0.20;;;;;;;1.53;85.56;101045.97;5036130;28;20889;-56
2021/04/04 02:05:36;;;;;;;0.30;0.20;;;;;;;1.50;86.45;101048.50;5035661;28;20451;-56
2021/04/04 02:08:09;;;;;;;0.30;0.20;;;;;;;1.38;86.89;101043.94;5035909;28;20452;-56
2021/04/04 02:10:38;;;;;;;0.30;0.20;;;;;;;1.51;86.51;101046.78;5034609;28;20477;-56
2021/04/04 02:13:06;;;;;;;0.30;0.10;;;;;;;1.44;86.33;101041.44;5034413;28;20529;-56
2021/04/04 02:15:33;;;;;;;0.30;0.10;;;;;;;1.22;87.58;101043.56;5035502;28;20868;-56
2021/04/04 02:18:01;;;;;;;0.30;0.10;;;;;;;1.56;86.76;101043.41;5035906;28;21353;-56
2021/04/04 02:20:30;;;;;;;0.30;0.20;;;;;;;1.48;86.33;101048.47;5035673;28;20456;-56
2021/04/04 02:22:59;;;;;;;1.17;1.17;;;;;;;1.28;88.28;101049.81;5035532;28;20470;-56
2021/04/04 02:25:26;;;;;;;0.20;0.10;;;;;;;1.17;89.17;101046.09;5035446;28;20440;-55
2021/04/04 02:27:57;;;;;;;0.20;0.10;;;;;;;1.24;88.39;101034.03;5035329;28;20444;-56
2021/04/04 02:30:23;;;;;;;0.30;0.30;;;;;;;1.06;89.04;101040.59;5035374;28;20459;-56
2021/04/04 02:33:25;;;;;;;0.20;0.20;;;;;;;1.18;89.02;101040.88;5035414;28;20475;-56
2021/04/04 02:36:07;;;;;;;0.20;0.10;;;;;;;1.19;88.55;101036.53;5026622;28;20454;-56
2021/04/04 02:38:37;;;;;;;0.20;0.10;;;;;;;1.24;88.62;101037.53;5035563;28;20443;-56
2021/04/04 02:41:07;;;;;;;0.20;0.10;;;;;;;1.11;89.16;101041.63;5035336;28;20521;-56
2021/04/04 02:43:35;;;;;;;0.30;0.20;;;;;;;1.14;88.27;101041.66;5035172;28;20471;-56
2021/04/04 02:46:06;;;;;;;0.20;0.20;;;;;;;1.20;88.46;101046.16;5034940;28;20545;-55
2021/04/04 02:48:40;;;;;;;0.23;0.10;;;;;;;1.14;87.52;101053.88;5034957;28;20926;-56
2021/04/04 02:51:09;;;;;;;0.20;0.10;;;;;;;1.09;88.29;101059.00;5035062;28;20490;-56
2021/04/04 02:53:41;;;;;;;0.20;0.10;;;;;;;1.03;88.32;101050.13;5034793;28;21042;-56
2021/04/04 02:56:08;;;;;;;0.20;0.10;;;;;;;1.11;87.66;101056.44;5034945;28;20451;-56
2021/04/04 02:58:37;;;;;;;0.20;0.10;;;;;;;1.56;86.19;101056.50;5034936;28;20451;-56
2021/04/04 03:01:05;;;;;;;0.20;0.10;;;;;;;1.20;86.93;101056.63;5034685;28;20460;-56
2021/04/04 03:03:34;;;;;;;0.20;0.10;;;;;;;1.37;86.70;101056.97;5034997;28;20887;-55
2021/04/04 03:06:04;;;;;;;0.77;0.77;;;;;;;1.17;87.64;101052.19;5033953;28;20579;-56
2021/04/04 03:08:30;;;;;;;0.30;0.20;;;;;;;1.22;87.81;101054.03;5035052;28;20460;-56
2021/04/04 03:10:58;;;;;;;0.20;0.10;;;;;;;0.95;89.29;101054.31;5021691;28;20955;-55
2021/04/04 03:13:25;;;;;;;0.20;0.20;;;;;;;0.87;88.95;101051.53;5034303;28;20522;-56
2021/04/04 03:15:52;;;;;;;0.20;0.10;;;;;;;0.72;89.52;101059.91;5034569;28;20436;-55
2021/04/04 03:18:20;;;;;;;0.20;0.10;;;;;;;0.85;89.65;101059.34;5034809;28;20455;-56
2021/04/04 03:20:47;;;;;;;0.30;0.20;;;;;;;0.88;89.39;101059.41;5034667;28;20452;-56
2021/04/04 03:23:18;;;;;;;0.30;0.13;;;;;;;0.81;88.65;101052.25;5034282;28;20472;-56
2021/04/04 03:25:46;;;;;;;0.20;0.10;;;;;;;0.94;88.69;101063.00;5034470;28;20528;-56
2021/04/04 03:28:15;;;;;;;0.20;0.20;;;;;;;1.03;88.99;101060.59;5034115;28;20878;-56
2021/04/04 03:30:43;;;;;;;0.70;0.70;;;;;;;1.26;87.63;101055.88;5034562;28;20522;-55
2021/04/04 03:33:18;;;;;;;0.20;0.10;;;;;;;1.26;87.59;101056.75;5034131;28;20492;-56
2021/04/04 03:35:46;;;;;;;0.20;0.10;;;;;;;1.17;87.17;101054.81;5034238;28;20451;-56
2021/04/04 03:38:14;;;;;;;0.20;0.20;;;;;;;1.24;87.96;101053.22;5034064;28;20471;-56
2021/04/04 03:40:41;;;;;;;0.20;0.20;;;;;;;1.23;88.40;101056.66;5034030;28;20452;-56
2021/04/04 03:43:14;;;;;;;0.20;0.10;;;;;;;1.39;86.87;101060.53;5034260;28;20479;-56
2021/04/04 03:45:41;;;;;;;0.20;0.10;;;;;;;1.18;87.24;101058.31;5032730;28;20940;-55
2021/04/04 03:48:07;;;;;;;0.20;0.10;;;;;;;1.03;87.94;101058.88;5033796;28;20452;-55
2021/04/04 03:50:39;;;;;;;0.20;0.10;;;;;;;1.01;89.83;101054.47;5033920;28;20447;-55
2021/04/04 03:53:07;;;;;;;0.40;0.30;;;;;;;0.99;89.88;101062.28;5033656;28;20820;-56
2021/04/04 03:55:34;;;;;;;0.20;0.10;;;;;;;0.98;91.22;101054.41;5033761;28;20566;-55
2021/04/04 03:58:02;;;;;;;0.20;0.10;;;;;;;1.08;89.49;101056.34;5033353;28;20502;-56
2021/04/04 04:00:32;;;;;;;0.20;0.10;;;;;;;1.09;90.05;101052.88;5033758;28;20451;-56
2021/04/04 04:03:00;;;;;;;0.20;0.20;;;;;;;1.07;89.99;101049.34;5033672;28;20895;-55
2021/04/04 04:05:26;;;;;;;0.20;0.13;;;;;;;1.07;89.55;101047.59;5033533;28;20451;-56
2021/04/04 04:07:55;;;;;;;0.30;0.20;;;;;;;1.35;88.75;101048.19;5033549;28;20494;-56
2021/04/04 04:10:22;;;;;;;0.20;0.10;;;;;;;0.98;89.58;101046.53;5033542;28;20456;-56
2021/04/04 04:12:49;;;;;;;0.20;0.10;;;;;;;1.00;88.62;101047.47;5033398;28;20996;-56
2021/04/04 04:15:17;;;;;;;0.20;0.20;;;;;;;0.80;89.48;101047.88;5033599;28;20456;-56
2021/04/04 04:17:46;;;;;;;0.20;0.10;;;;;;;0.94;90.13;101048.19;5032367;28;20463;-56
2021/04/04 04:20:14;;;;;;;0.20;0.10;;;;;;;0.69;91.65;101040.66;5033153;28;20452;-55
2021/04/04 04:22:43;;;;;;;0.20;0.10;;;;;;;0.69;91.80;101038.91;5033271;28;20471;-56
2021/04/04 04:25:11;;;;;;;0.20;0.10;;;;;;;0.72;91.22;101040.72;5033369;28;20451;-55
2021/04/04 04:27:39;;;;;;;0.20;0.20;;;;;;;0.72;91.11;101046.81;5033249;28;20491;-56
2021/04/04 04:30:07;;;;;;;0.20;0.20;;;;;;;0.86;92.68;101050.66;5033169;28;20460;-56
2021/04/04 04:32:36;;;;;;;0.20;0.10;;;;;;;0.85;91.68;101046.25;5032975;28;20513;-57
2021/04/04 04:35:04;;;;;;;0.20;0.10;;;;;;;0.83;92.39;101047.09;5032996;28;20498;-56
2021/04/04 04:37:34;;;;;;;0.20;0.10;;;;;;;0.74;93.19;101052.09;5033216;28;20493;-56
2021/04/04 04:40:07;;;;;;;0.20;0.10;;;;;;;0.99;90.76;101045.69;5033245;28;20452;-56
2021/04/04 04:42:36;;;;;;;0.20;0.10;;;;;;;0.95;90.82;101049.06;5031800;28;20459;-56
2021/04/04 04:45:03;;;;;;;0.20;0.10;;;;;;;0.68;91.83;101050.19;5032920;28;20486;-56
2021/04/04 04:47:30;;;;;;;0.20;0.10;;;;;;;0.71;91.73;101054.66;5032701;28;20488;-56
2021/04/04 04:49:57;;;;;;;0.20;0.10;;;;;;;0.53;92.11;101042.88;5032778;28;20451;-56
2021/04/04 04:52:24;;;;;;;0.30;0.20;;;;;;;0.74;91.13;101050.34;5032783;28;20451;-56
2021/04/04 04:54:51;;;;;;;0.20;0.20;;;;;;;0.40;93.03;101055.59;5019490;28;20456;-56
2021/04/04 04:57:17;;;;;;;0.20;0.10;;;;;;;0.67;92.34;101050.16;5032474;28;20464;-55
2021/04/04 04:59:46;;;;;;;0.20;0.20;;;;;;;0.55;92.65;101046.44;5031497;28;20451;-56
2021/04/04 05:02:14;;;;;;;0.20;0.20;;;;;;;0.56;92.97;101045.59;5032526;28;20505;-55
2021/04/04 05:04:40;;;;;;;0.20;0.10;;;;;;;0.50;93.60;101042.81;5031387;28;20471;-56
2021/04/04 05:07:07;;;;;;;0.20;0.10;;;;;;;0.54;93.70;101044.63;5031349;28;20847;-55
2021/04/04 05:09:34;;;;;;;0.20;0.10;;;;;;;0.49;93.28;101045.38;5032598;28;20497;-55
2021/04/04 05:12:01;;;;;;;0.20;0.10;;;;;;;0.48;95.39;101047.13;5031330;28;20455;-55
2021/04/04 05:14:27;;;;;;;0.30;0.20;;;;;;;0.59;94.54;101043.03;5032204;28;20525;-55
2021/04/04 05:16:54;;;;;;;0.20;0.10;;;;;;;0.74;93.99;101044.25;5032445;28;21015;-55
2021/04/04 05:19:21;;;;;;;1.43;1.43;;;;;;;0.54;94.78;101035.91;5032342;28;21008;-55
2021/04/04 05:21:48;;;;;;;0.20;0.10;;;;;;;0.63;95.17;101037.88;5032301;28;21017;-55
2021/04/04 05:24:16;;;;;;;0.20;0.10;;;;;;;0.93;95.25;101035.94;5032387;28;20495;-55
2021/04/04 05:26:44;;;;;;;0.20;0.10;;;;;;;1.58;93.06;101041.69;5032131;28;20874;-55
2021/04/04 05:29:16;;;;;;;0.20;0.10;;;;;;;1.61;92.36;101033.91;5032251;28;20463;-55
2021/04/04 05:31:54;;;;;;;0.20;0.10;;;;;;;1.89;90.73;101043.16;5032492;28;20534;-54
2021/04/04 05:34:23;;;;;;;0.20;0.10;;;;;;;2.00;91.19;101038.13;5030884;28;21058;-55
2021/04/04 05:36:57;;;;;;;0.20;0.20;;;;;;;2.22;90.72;101050.78;5032193;28;20858;-55
2021/04/04 05:39:26;;;;;;;0.20;0.10;;;;;;;2.41;89.60;101044.09;5032029;28;20494;-55
2021/04/04 05:41:59;;;;;;;0.20;0.13;;;;;;;2.45;89.13;101045.03;5032348;28;20447;-55
2021/04/04 05:44:27;;;;;;;0.20;0.10;;;;;;;2.81;89.66;101050.84;5032341;28;20463;-55
2021/04/04 05:46:59;;;;;;;0.20;0.10;;;;;;;2.73;89.60;101047.22;5032223;28;20484;-55
2021/04/04 05:49:38;;;;;;;0.20;0.20;;;;;;;2.68;89.07;101051.53;5032417;28;20447;-55
2021/04/04 05:52:38;;;;;;;0.30;0.20;;;;;;;2.68;89.50;101056.78;5032504;28;20439;-55
2021/04/04 05:55:10;;;;;;;0.20;0.10;;;;;;;2.64;90.29;101054.97;5021670;28;20455;-55
2021/04/04 05:57:42;;;;;;;0.20;0.10;;;;;;;2.76;90.30;101052.53;5031906;28;20983;-55
2021/04/04 06:00:10;;;;;;;0.50;0.50;;;;;;;2.84;90.13;101050.00;5032048;28;20925;-55
2021/04/04 06:03:04;;;;;;;0.30;0.20;;;;;;;2.92;90.82;101057.16;5032066;28;20455;-55
2021/04/04 06:06:07;;;;;;;0.30;0.10;;;;;;;3.04;90.97;101056.47;5032051;28;20452;-55
2021/04/04 06:08:43;;;;;;;0.30;0.30;;;;;;;3.06;90.44;101069.59;5032007;28;20478;-55
2021/04/04 06:11:22;;;;;;;0.30;0.20;;;;;;;3.17;90.17;101062.78;5032290;28;20689;-54
2021/04/04 06:14:07;;;;;;;0.30;0.20;;;;;;;3.48;90.48;101057.03;5031960;28;20467;-55
2021/04/04 06:17:01;;;;;;;0.23;0.10;;;;;;;3.42;90.67;101059.56;5032009;28;20483;-55
2021/04/04 06:19:45;;;;;;;0.30;0.30;;;;;;;3.47;91.06;101063.16;5021488;28;20448;-55
2021/04/04 06:22:45;;;;;;;0.57;0.57;;;;;;;3.64;90.84;101063.38;5046268;28;20497;-55
2021/04/04 06:25:21;;;;;;;0.30;0.10;;;;;;;3.79;91.47;101067.91;5028898;28;20450;-55
2021/04/04 06:28:28;;;;;;;0.30;0.30;;;;;;;3.84;91.41;101068.88;5031982;28;20491;-55
2021/04/04 06:31:12;;;;;;;0.30;0.20;;;;;;;4.03;90.88;101067.31;5014660;28;20447;-55
2021/04/04 06:33:45;;;;;;;0.30;0.10;;;;;;;4.16;90.82;101069.22;5032015;28;20487;-55
2021/04/04 06:36:36;;;;;;;0.30;0.20;;;;;;;4.29;90.66;101062.31;5031549;28;20440;-55
2021/04/04 06:39:07;;;;;;;0.30;0.20;;;;;;;4.42;90.21;101062.44;5032002;28;20448;-55
2021/04/04 06:41:49;;;;;;;0.30;0.20;;;;;;;4.26;90.53;101059.66;5034755;28;20857;-55
2021/04/04 06:44:25;;;;;;;0.30;0.10;;;;;;;4.49;90.10;101063.38;5035505;28;20464;-55
2021/04/04 06:47:02;;;;;;;0.30;0.10;;;;;;;4.59;90.04;101062.56;5035085;28;20491;-55
2021/04/04 06:49:57;;;;;;;0.30;0.30;;;;;;;4.90;89.16;101060.16;5035016;28;20440;-55
2021/04/04 06:52:43;;;;;;;0.30;0.20;;;;;;;5.20;88.71;101063.00;5034632;28;20463;-55
2021/04/04 06:55:33;;;;;;;0.30;0.20;;;;;;;5.30;87.37;101066.56;5024976;28;20448;-55
2021/04/04 06:58:29;;;;;;;0.30;0.20;;;;;;;5.19;87.85;101053.31;5029298;28;20562;-55
2021/04/04 07:01:05;;;;;;;0.30;0.10;;;;;;;5.38;88.87;101054.31;5034779;28;20436;-55
2021/04/04 07:03:43;;;;;;;0.30;0.20;;;;;;;5.75;87.70;101047.41;5034710;28;20463;-55
2021/04/04 07:06:27;;;;;;;0.30;0.20;;;;;;;5.86;86.88;101052.72;5034913;28;20487;-56
2021/04/04 07:09:26;;;;;;;0.30;0.20;;;;;;;5.80;87.42;101050.09;5034543;28;20452;-55
2021/04/04 07:12:15;;;;;;;0.40;0.30;;;;;;;6.12;86.47;101048.44;5033572;28;20497;-55
2021/04/04 07:15:12;;;;;;;0.30;0.20;;;;;;;6.00;86.45;101043.13;5034688;28;20471;-55
2021/04/04 07:18:07;;;;;;;0.30;0.20;;;;;;;6.35;86.05;101040.56;5022600;28;20443;-55
2021/04/04 07:20:56;;;;;;;0.30;0.20;;;;;;;6.37;85.08;101046.72;5034382;28;20448;-55
2021/04/04 07:23:37;;;;;;;0.30;0.20;;;;;;;6.29;85.39;101039.66;5034269;28;20479;-55
2021/04/04 07:26:17;;;;;;;0.30;0.20;;;;;;;6.28;86.56;101027.34;5034314;28;20994;-55
2021/04/04 07:28:59;;;;;;;0.30;0.20;;;;;;;6.35;87.87;101037.91;5034263;28;20968;-55
2021/04/04 07:31:31;;;;;;;0.30;0.20;;;;;;;6.50;87.54;101031.75;5034020;28;20806;-55
2021/04/04 07:34:15;;;;;;;0.30;0.20;;;;;;;6.54;87.11;101041.44;5032959;28;20475;-55
2021/04/04 07:36:51;;;;;;;0.30;0.20;;;;;;;6.93;87.41;101032.59;5034029;28;20452;-55
2021/04/04 07:39:26;;;;;;;0.30;0.20;;;;;;;7.19;85.96;101029.00;5034231;28;20506;-55
2021/04/04 07:42:21;;;;;;;0.30;0.20;;;;;;;7.35;84.93;101026.31;5020940;28;20501;-55
2021/04/04 07:44:58;;;;;;;0.30;0.20;;;;;;;7.40;84.25;101029.84;5033954;28;20478;-55
2021/04/04 07:47:26;;;;;;;0.30;0.20;;;;;;;7.46;83.83;101025.41;5034118;28;20495;-53
2021/04/04 07:50:02;;;;;;;0.30;0.20;;;;;;;7.66;82.85;101021.75;5033824;28;20472;-54
2021/04/04 07:53:05;;;;;;;0.57;0.57;;;;;;;8.14;82.51;101022.38;5034058;28;20469;-54
2021/04/04 07:55:51;;;;;;;0.30;0.20;;;;;;;7.97;81.84;101022.50;5034208;28;20505;-54
2021/04/04 07:58:27;;;;;;;0.40;0.40;;;;;;;8.16;81.12;101020.59;5022688;28;20513;-54
2021/04/04 08:01:12;;;;;;;0.30;0.20;;;;;;;8.27;80.44;101025.81;5033517;28;20937;-54
2021/04/04 08:03:48;;;;;;;0.30;0.20;;;;;;;8.51;78.91;101015.06;5033660;28;20467;-55
2021/04/04 08:06:15;;;;;;;0.40;0.30;;;;;;;8.46;80.53;101023.94;5021468;28;20486;-54
2021/04/04 08:08:51;;;;;;;0.87;0.87;;;;;;;8.22;80.77;101015.25;5033673;28;20454;-54
2021/04/04 08:11:23;;;;;;;0.30;0.20;;;;;;;8.53;79.46;101020.34;5033754;28;20929;-54
2021/04/04 08:14:06;;;;;;;0.30;0.20;;;;;;;8.63;78.83;101016.69;5033241;28;20526;-54
2021/04/04 08:16:42;;;;;;;0.30;0.20;;;;;;;8.90;77.86;101012.91;5034065;28;20448;-54
2021/04/04 08:19:10;;;;;;;0.30;0.20;;;;;;;8.98;78.32;101012.84;5034571;28;20451;-55
2021/04/04 08:21:46;;;;;;;0.30;0.20;;;;;;;9.17;75.70;101009.97;5032273;28;20993;-54
2021/04/04 08:24:30;;;;;;;0.30;0.20;;;;;;;8.96;77.05;101002.25;5033618;28;20546;-55
2021/04/04 08:27:23;;;;;;;0.30;0.20;;;;;;;9.14;76.37;101014.44;5033394;28;20488;-54
2021/04/04 08:30:17;;;;;;;0.30;0.20;;;;;;;9.25;76.14;101016.97;5033228;28;20797;-55
2021/04/04 08:32:50;;;;;;;0.40;0.27;;;;;;;9.10;76.15;101016.25;5017679;28;20467;-55
2021/04/04 08:35:25;;;;;;;0.30;0.20;;;;;;;9.17;76.14;101014.41;5033244;28;20827;-55
2021/04/04 08:38:00;;;;;;;0.30;0.20;;;;;;;9.05;75.21;101010.13;5031862;28;20439;-55
2021/04/04 08:40:26;;;;;;;0.30;0.20;;;;;;;9.35;75.48;101011.53;5032979;28;20443;-55
2021/04/04 08:42:52;;;;;;;0.30;0.20;;;;;;;9.45;74.85;101001.69;5032578;28;20972;-56
2021/04/04 08:45:29;;;;;;;0.30;0.20;;;;;;;9.18;73.91;101003.78;5033024;28;20497;-54
2021/04/04 08:47:57;;;;;;;0.30;0.20;;;;;;;9.57;74.04;101003.31;5032655;28;20494;-55
2021/04/04 08:50:26;;;;;;;0.30;0.20;;;;;;;9.72;73.41;100995.13;5032912;28;20493;-55
2021/04/04 08:53:24;;;;;;;0.30;0.20;;;;;;;9.53;73.25;100999.81;5032662;28;20477;-55
2021/04/04 08:55:51;;;;;;;4.40;1.13;;;;;;;9.80;72.87;101004.75;5032556;28;20528;-55
2021/04/04 08:58:23;;;;;;;0.30;0.20;;;;;;;9.68;72.82;101002.28;5032878;28;20527;-55
2021/04/04 09:00:53;;;;;;;0.30;0.20;;;;;;;9.91;71.76;100993.13;5032535;28;20510;-55
2021/04/04 09:03:21;;;;;;;0.30;0.20;;;;;;;9.89;71.82;100994.91;5031929;28;20471;-55
2021/04/04 09:05:48;;;;;;;0.40;0.20;;;;;;;9.78;71.37;101001.25;5032466;28;20478;-55
2021/04/04 09:08:16;;;;;;;0.30;0.20;;;;;;;9.71;71.57;101001.34;5032511;28;20499;-56
2021/04/04 09:10:45;;;;;;;0.30;0.20;;;;;;;9.94;70.92;100990.41;5032484;28;20941;-55
2021/04/04 09:13:15;;;;;;;0.70;0.70;;;;;;;9.82;70.57;100996.78;5032490;28;20996;-55
2021/04/04 09:15:50;;;;;;;0.30;0.20;;;;;;;10.21;69.27;101000.66;5032483;28;20874;-55
2021/04/04 09:18:17;;;;;;;0.30;0.20;;;;;;;10.43;70.13;101000.31;5032364;28;20546;-54
2021/04/04 09:20:46;;;;;;;0.30;0.20;;;;;;;10.23;68.05;100993.53;5032492;28;20463;-55
2021/04/04 09:23:15;;;;;;;0.30;0.20;;;;;;;10.08;68.78;100997.28;5032231;28;20478;-55
2021/04/04 09:25:52;;;;;;;0.30;0.20;;;;;;;10.16;67.88;100989.19;5019504;28;20888;-55
2021/04/04 09:28:20;;;;;;;0.30;0.20;;;;;;;10.68;67.57;100993.66;5032209;28;20499;-55
2021/04/04 09:30:46;;;;;;;0.30;0.20;;;;;;;10.73;65.88;100996.25;5032249;28;20498;-55
2021/04/04 09:33:19;;;;;;;0.30;0.20;;;;;;;10.33;68.10;100992.50;5032031;28;20491;-55
2021/04/04 09:35:54;;;;;;;0.30;0.20;;;;;;;10.17;67.34;100987.41;5032330;28;20832;-55
2021/04/04 09:38:27;;;;;;;0.30;0.20;;;;;;;10.59;66.27;100983.19;5032200;28;20493;-55
2021/04/04 09:40:54;;;;;;;13.03;1.70;;;;;;;10.71;65.07;100982.09;5032113;28;20455;-55
2021/04/04 09:43:21;;;;;;;0.40;0.40;;;;;;;10.79;63.85;100974.84;5031997;28;20992;-55
2021/04/04 09:45:47;;;;;;;0.30;0.20;;;;;;;10.55;63.97;100978.81;5032290;28;20531;-55
2021/04/04 09:48:17;;;;;;;0.30;0.20;;;;;;;10.27;65.56;100975.75;5032048;28;20491;-54
2021/04/04 09:50:44;;;;;;;0.30;0.20;;;;;;;11.04;65.17;100964.63;5032084;28;20452;-54
2021/04/04 09:53:11;;;;;;;0.30;0.20;;;;;;;11.26;62.47;100960.63;5019116;28;20524;-54
2021/04/04 09:55:44;;;;;;;0.33;0.23;;;;;;;10.75;64.90;100954.56;5032012;28;20941;-54
2021/04/04 09:58:11;;;;;;;0.30;0.20;;;;;;;10.47;65.53;100962.16;5020573;28;20518;-54
2021/04/04 10:00:38;;;;;;;0.30;0.20;;;;;;;10.83;64.75;100957.97;5030852;28;20578;-55
2021/04/04 10:03:15;;;;;;;0.30;0.20;;;;;;;11.15;62.76;100952.00;5032194;28;20472;-54
2021/04/04 10:05:43;;;;;;;0.30;0.20;;;;;;;11.17;61.04;100955.50;5030638;28;20451;-54
2021/04/04 10:08:15;;;;;;;0.67;0.50;;;;;;;11.42;61.05;100950.53;5031817;28;21004;-54
2021/04/04 10:10:47;;;;;;;0.30;0.20;;;;;;;11.48;61.35;100945.94;5031924;28;20502;-54
2021/04/04 10:13:15;;;;;;;0.30;0.20;;;;;;;11.54;61.34;100948.50;5031969;28;20467;-55
2021/04/04 10:15:46;;;;;;;0.30;0.20;;;;;;;11.92;60.38;100943.22;5035733;28;20457;-55
2021/04/04 10:18:13;;;;;;;0.30;0.20;;;;;;;12.31;58.85;100947.59;5036237;28;20439;-56
2021/04/04 10:20:47;;;;;;;0.30;0.20;;;;;;;12.76;57.88;100950.00;5034202;28;20485;-56
2021/04/04 10:23:15;;;;;;;0.33;0.27;;;;;;;12.28;58.48;100950.34;5035385;28;20990;-54
2021/04/04 10:26:02;;;;;;;0.30;0.20;;;;;;;12.33;60.25;100945.75;5035466;28;20447;-56
2021/04/04 10:28:48;;;;;;;2.73;2.20;;;;;;;12.29;59.23;100945.88;5035426;28;20513;-56
2021/04/04 10:31:17;;;;;;;0.30;0.20;;;;;;;11.80;59.40;100941.75;5035579;28;20455;-55
2021/04/04 10:33:43;;;;;;;4.50;1.13;;;;;;;11.84;59.27;100938.97;5035335;28;20557;-54
2021/04/04 10:36:24;;;;;;;0.30;0.20;;;;;;;11.64;60.40;100941.16;5035369;28;20447;-54
2021/04/04 10:38:52;;;;;;;0.30;0.20;;;;;;;11.74;59.79;100932.06;5035619;28;20457;-54
2021/04/04 10:41:37;;;;;;;0.30;0.20;;;;;;;11.70;58.91;100935.72;5035161;28;20447;-55
2021/04/04 10:44:07;;;;;;;0.30;0.20;;;;;;;11.86;59.73;100915.81;5035507;28;20467;-55
2021/04/04 10:46:34;;;;;;;0.30;0.20;;;;;;;11.83;58.89;100917.69;5035400;28;20491;-54
2021/04/04 10:49:04;;;;;;;1.17;1.07;;;;;;;11.78;59.18;100917.75;5035298;28;20462;-54
2021/04/04 10:51:31;;;;;;;0.30;0.20;;;;;;;11.92;58.63;100925.44;5035082;28;20531;-54
2021/04/04 10:54:00;;;;;;;0.50;0.50;;;;;;;11.99;59.12;100926.19;5034826;28;20475;-55
2021/04/04 10:56:29;;;;;;;1.37;1.37;;;;;;;11.92;59.38;100920.13;5020945;28;20517;-54
2021/04/04 10:58:56;;;;;;;0.30;0.27;;;;;;;12.05;59.32;100924.25;5035099;28;20502;-54
2021/04/04 11:01:23;;;;;;;0.40;0.40;;;;;;;12.17;60.06;100917.72;5034937;28;20462;-54
2021/04/04 11:03:51;;;;;;;0.30;0.20;;;;;;;12.14;59.43;100907.16;5034695;28;20517;-54
2021/04/04 11:06:17;;;;;;;0.30;0.20;;;;;;;12.39;59.10;100913.63;5034797;28;20451;-54
2021/04/04 11:08:44;;;;;;;0.30;0.20;;;;;;;12.28;59.57;100909.47;5035055;28;20451;-54
2021/04/04 11:11:14;;;;;;;0.30;0.20;;;;;;;12.66;57.73;100901.34;5034868;28;20447;-54
2021/04/04 11:13:44;;;;;;;4.40;1.03;;;;;;;12.73;57.85;100892.25;5034684;28;20472;-55
2021/04/04 11:16:15;;;;;;;0.30;0.20;;;;;;;12.47;57.54;100892.06;5034726;28;20493;-55
2021/04/04 11:18:48;;;;;;;0.60;0.60;;;;;;;12.20;58.42;100890.13;5034595;28;20456;-55
2021/04/04 11:21:21;;;;;;;0.40;0.30;;;;;;;12.53;58.94;100897.25;5035011;28;20478;-55
2021/04/04 11:23:51;;;;;;;0.60;0.60;;;;;;;12.11;59.45;100884.13;5034764;28;20478;-56
2021/04/04 11:26:24;;;;;;;0.30;0.20;;;;;;;12.29;58.08;100892.56;5034396;28;20455;-55
2021/04/04 11:29:23;;;;;;;0.40;0.37;;;;;;;12.32;59.10;100885.34;5034572;28;20456;-55
2021/04/04 11:31:57;;;;;;;0.30;0.20;;;;;;;12.46;57.75;100887.66;4991576;28;20460;-56
2021/04/04 11:34:43;;;;;;;0.30;0.20;;;;;;;12.41;58.08;100887.78;5034445;28;21018;-56
2021/04/04 11:37:12;;;;;;;0.40;0.40;;;;;;;12.41;57.93;100887.78;5033499;28;20478;-56
2021/04/04 11:39:40;;;;;;;0.30;0.20;;;;;;;12.62;58.17;100890.81;5034069;28;20451;-55
2021/04/04 11:42:18;;;;;;;0.30;0.20;;;;;;;12.56;57.03;100883.84;5034263;28;20456;-56
2021/04/04 11:44:52;;;;;;;0.30;0.20;;;;;;;12.37;57.99;100891.47;5034198;28;20830;-56
2021/04/04 11:47:18;;;;;;;0.40;0.30;;;;;;;12.58;57.81;100889.13;5034156;28;20899;-56
2021/04/04 11:49:54;;;;;;;0.30;0.20;;;;;;;12.62;58.13;100881.00;5034157;28;20444;-56
2021/04/04 11:52:23;;;;;;;0.30;0.20;;;;;;;12.37;58.50;100891.47;5034106;28;20451;-56
2021/04/04 11:54:51;;;;;;;0.30;0.20;;;;;;;12.22;58.34;100886.53;5021133;28;20455;-55
2021/04/04 11:57:17;;;;;;;0.30;0.20;;;;;;;12.07;59.40;100890.47;5033775;28;20873;-56